sensor_id;sensor_type;location;lat;lon;timestamp;pressure;altitude;pressure_sealevel;temperature;humidity
19520;BME280;9904;52.246;20.898;2023-12-20T00:01:05;99307.06;;;4.59;100.00
19520;BME280;9904;52.246;20.898;2023-12-20T00:03:32;99300.97;;;4.57;100.00
19520;BME280;9904;52.246;20.898;2023-12-20T00:06:08;99306.06;;;4.60;100.00
19520;BME280;9904;52.246;20.898;2023-12-20T00:08:34;99293.38;;;4.63;100.00
19520;BME280;9904;52.246;20.898;2023-12-20T00:11:01;99294.63;;;4.58;100.00
19520;BME280;9904;52.246;20.898;2023-12-20T00:13:28;99293.09;;;4.56;100.00
19520;BME280;9904;52.246;20.898;2023-12-20T00:15:55;99290.25;;;4.57;100.00
19520;BME280;9904;52.246;20.898;2023-12-20T00:18:21;99282.22;;;4.57;100.00
19520;BME280;9904;52.246;20.898;2023-12-20T00:20:48;99289.44;;;4.57;100.00
19520;BME280;9904;52.246;20.898;2023-12-20T00:23:15;99284.63;;;4.60;100.00
19520;BME280;9904;52.246;20.898;2023-12-20T00:25:41;99287.16;;;4.62;100.00
19520;BME280;9904;52.246;20.898;2023-12-20T00:28:08;99280.50;;;4.56;100.00
19520;BME280;9904;52.246;20.898;2023-12-20T00:30:34;99281.22;;;4.58;100.00
19520;BME280;9904;52.246;20.898;2023-12-20T00:33:02;99277.44;;;4.61;100.00
19520;BME280;9904;52.246;20.898;2023-12-20T00:35:29;99282.94;;;4.59;100.00
19520;BME280;9904;52.246;20.898;2023-12-20T00:37:58;99271.91;;;4.63;100.00
19520;BME280;9904;52.246;20.898;2023-12-20T00:40:25;99280.09;;;4.61;100.00
19520;BME280;9904;52.246;20.898;2023-12-20T00:42:51;99266.00;;;4.59;100.00
19520;BME280;9904;52.246;20.898;2023-12-20T00:45:18;99261.91;;;4.65;100.00
19520;BME280;9904;52.246;20.898;2023-12-20T00:47:45;99269.25;;;4.63;100.00
19520;BME280;9904;52.246;20.898;2023-12-20T00:50:12;99274.47;;;4.64;100.00
19520;BME280;9904;52.246;20.898;2023-12-20T00:52:39;99259.22;;;4.65;100.00
19520;BME280;9904;52.246;20.898;2023-12-20T00:55:05;99265.44;;;4.65;100.00
19520;BME280;9904;52.246;20.898;2023-12-20T00:57:32;99267.28;;;4.65;100.00
19520;BME280;9904;52.246;20.898;2023-12-20T00:59:59;99266.31;;;4.75;100.00
19520;BME280;9904;52.246;20.898;2023-12-20T01:02:25;99253.59;;;4.68;100.00
19520;BME280;9904;52.246;20.898;2023-12-20T01:04:52;99260.94;;;4.66;100.00
19520;BME280;9904;52.246;20.898;2023-12-20T01:07:18;99268.09;;;4.65;100.00
19520;BME280;9904;52.246;20.898;2023-12-20T01:09:45;99266.00;;;4.69;100.00
19520;BME280;9904;52.246;20.898;2023-12-20T01:12:12;99256.41;;;4.66;100.00
19520;BME280;9904;52.246;20.898;2023-12-20T01:14:38;99263.63;;;4.66;100.00
19520;BME280;9904;52.246;20.898;2023-12-20T01:17:06;99268.00;;;4.67;100.00
19520;BME280;9904;52.246;20.898;2023-12-20T01:19:32;99258.25;;;4.66;100.00
19520;BME280;9904;52.246;20.898;2023-12-20T01:21:59;99260.63;;;4.69;100.00
19520;BME280;9904;52.246;20.898;2023-12-20T01:24:26;99243.88;;;4.67;100.00
19520;BME280;9904;52.246;20.898;2023-12-20T01:26:52;99249.09;;;4.68;100.00
19520;BME280;9904;52.246;20.898;2023-12-20T01:29:20;99240.88;;;4.70;100.00
19520;BME280;9904;52.246;20.898;2023-12-20T01:31:46;99249.78;;;4.70;100.00
19520;BME280;9904;52.246;20.898;2023-12-20T01:34:13;99244.13;;;4.73;100.00
19520;BME280;9904;52.246;20.898;2023-12-20T01:36:40;99240.78;;;4.71;100.00
19520;BME280;9904;52.246;20.898;2023-12-20T01:39:06;99237.22;;;4.71;100.00
19520;BME280;9904;52.246;20.898;2023-12-20T01:41:50;99240.78;;;4.71;100.00
19520;BME280;9904;52.246;20.898;2023-12-20T01:44:17;99239.91;;;4.71;100.00
19520;BME280;9904;52.246;20.898;2023-12-20T01:46:43;99246.25;;;4.70;100.00
19520;BME280;9904;52.246;20.898;2023-12-20T01:49:10;99236.50;;;4.69;100.00
19520;BME280;9904;52.246;20.898;2023-12-20T01:51:38;99227.63;;;4.68;100.00
19520;BME280;9904;52.246;20.898;2023-12-20T01:54:05;99246.81;;;4.73;100.00
19520;BME280;9904;52.246;20.898;2023-12-20T01:56:32;99228.19;;;4.72;100.00
19520;BME280;9904;52.246;20.898;2023-12-20T01:59:00;99218.75;;;4.68;100.00
19520;BME280;9904;52.246;20.898;2023-12-20T02:01:27;99226.66;;;4.69;100.00
19520;BME280;9904;52.246;20.898;2023-12-20T02:03:55;99225.66;;;4.70;100.00
19520;BME280;9904;52.246;20.898;2023-12-20T02:06:24;99225.66;;;4.70;100.00
19520;BME280;9904;52.246;20.898;2023-12-20T02:08:55;99222.28;;;4.68;100.00
19520;BME280;9904;52.246;20.898;2023-12-20T02:11:23;99220.31;;;4.70;100.00
19520;BME280;9904;52.246;20.898;2023-12-20T02:13:49;99225.66;;;4.70;100.00
19520;BME280;9904;52.246;20.898;2023-12-20T02:16:16;99218.03;;;4.66;100.00
19520;BME280;9904;52.246;20.898;2023-12-20T02:18:44;99208.31;;;4.65;100.00
19520;BME280;9904;52.246;20.898;2023-12-20T02:21:11;99218.19;;;4.64;100.00
19520;BME280;9904;52.246;20.898;2023-12-20T02:23:37;99210.84;;;4.66;100.00
19520;BME280;9904;52.246;20.898;2023-12-20T02:26:04;99209.69;;;4.69;100.00
19520;BME280;9904;52.246;20.898;2023-12-20T02:28:31;99203.78;;;4.65;100.00
19520;BME280;9904;52.246;20.898;2023-12-20T02:30:58;99196.75;;;4.64;100.00
19520;BME280;9904;52.246;20.898;2023-12-20T02:33:25;99191.50;;;4.63;100.00
19520;BME280;9904;52.246;20.898;2023-12-20T02:35:51;99192.06;;;4.66;100.00
19520;BME280;9904;52.246;20.898;2023-12-20T02:38:19;99191.50;;;4.63;100.00
19520;BME280;9904;52.246;20.898;2023-12-20T02:40:45;99189.69;;;4.63;100.00
19520;BME280;9904;52.246;20.898;2023-12-20T02:43:15;99171.91;;;4.62;100.00
19520;BME280;9904;52.246;20.898;2023-12-20T02:45:42;99176.97;;;4.65;100.00
19520;BME280;9904;52.246;20.898;2023-12-20T02:48:09;99175.41;;;4.63;100.00
19520;BME280;9904;52.246;20.898;2023-12-20T02:50:35;99180.66;;;4.64;100.00
19520;BME280;9904;52.246;20.898;2023-12-20T02:53:02;99178.00;;;4.64;100.00
19520;BME280;9904;52.246;20.898;2023-12-20T02:55:29;99181.50;;;4.65;100.00
19520;BME280;9904;52.246;20.898;2023-12-20T02:57:55;99194.63;;;4.68;100.00
19520;BME280;9904;52.246;20.898;2023-12-20T03:00:22;99193.91;;;4.66;100.00
19520;BME280;9904;52.246;20.898;2023-12-20T03:02:48;99178.41;;;4.69;100.00
19520;BME280;9904;52.246;20.898;2023-12-20T03:05:15;99176.13;;;4.74;100.00
19520;BME280;9904;52.246;20.898;2023-12-20T03:07:41;99175.16;;;4.66;100.00
19520;BME280;9904;52.246;20.898;2023-12-20T03:10:08;99177.53;;;4.69;100.00
19520;BME280;9904;52.246;20.898;2023-12-20T03:12:45;99182.47;;;4.73;100.00
19520;BME280;9904;52.246;20.898;2023-12-20T03:15:12;99179.38;;;4.68;100.00
19520;BME280;9904;52.246;20.898;2023-12-20T03:17:39;99161.59;;;4.67;100.00
19520;BME280;9904;52.246;20.898;2023-12-20T03:20:06;99159.63;;;4.69;100.00
19520;BME280;9904;52.246;20.898;2023-12-20T03:22:33;99174.84;;;4.69;100.00
19520;BME280;9904;52.246;20.898;2023-12-20T03:24:59;99186.03;;;4.74;100.00
19520;BME280;9904;52.246;20.898;2023-12-20T03:27:26;99176.97;;;4.65;100.00
19520;BME280;9904;52.246;20.898;2023-12-20T03:29:52;99179.13;;;4.71;100.00
19520;BME280;9904;52.246;20.898;2023-12-20T03:32:19;99166.13;;;4.67;100.00
19520;BME280;9904;52.246;20.898;2023-12-20T03:34:46;99173.59;;;4.73;100.00
19520;BME280;9904;52.246;20.898;2023-12-20T03:37:13;99176.00;;;4.66;100.00
19520;BME280;9904;52.246;20.898;2023-12-20T03:39:39;99162.16;;;4.71;100.00
19520;BME280;9904;52.246;20.898;2023-12-20T03:42:06;99154.28;;;4.69;100.00
19520;BME280;9904;52.246;20.898;2023-12-20T03:44:32;99161.91;;;4.64;100.00
19520;BME280;9904;52.246;20.898;2023-12-20T03:46:59;99160.06;;;4.65;100.00
19520;BME280;9904;52.246;20.898;2023-12-20T03:49:25;99165.16;;;4.68;100.00
19520;BME280;9904;52.246;20.898;2023-12-20T03:51:52;99164.59;;;4.64;100.00
19520;BME280;9904;52.246;20.898;2023-12-20T03:54:19;99164.69;;;4.63;100.00
19520;BME280;9904;52.246;20.898;2023-12-20T03:56:45;99169.38;;;4.70;100.00
19520;BME280;9904;52.246;20.898;2023-12-20T03:59:12;99154.53;;;4.66;100.00
19520;BME280;9904;52.246;20.898;2023-12-20T04:01:38;99157.53;;;4.63;100.00
19520;BME280;9904;52.246;20.898;2023-12-20T04:04:05;99149.59;;;4.62;100.00
19520;BME280;9904;52.246;20.898;2023-12-20T04:06:31;99163.44;;;4.67;100.00
19520;BME280;9904;52.246;20.898;2023-12-20T04:08:58;99173.31;;;4.66;100.00
19520;BME280;9904;52.246;20.898;2023-12-20T04:11:25;99155.81;;;4.62;100.00
19520;BME280;9904;52.246;20.898;2023-12-20T04:13:51;99152.44;;;4.60;100.00
19520;BME280;9904;52.246;20.898;2023-12-20T04:16:18;99161.47;;;4.59;100.00
19520;BME280;9904;52.246;20.898;2023-12-20T04:18:44;99160.78;;;4.57;100.00
19520;BME280;9904;52.246;20.898;2023-12-20T04:21:11;99165.97;;;4.58;100.00
19520;BME280;9904;52.246;20.898;2023-12-20T04:23:38;99155.53;;;4.55;100.00
19520;BME280;9904;52.246;20.898;2023-12-20T04:26:04;99151.44;;;4.61;100.00
19520;BME280;9904;52.246;20.898;2023-12-20T04:28:31;99163.44;;;4.57;100.00
19520;BME280;9904;52.246;20.898;2023-12-20T04:30:58;99169.50;;;4.59;100.00
19520;BME280;9904;52.246;20.898;2023-12-20T04:33:24;99154.28;;;4.59;100.00
19520;BME280;9904;52.246;20.898;2023-12-20T04:35:51;99157.94;;;4.68;100.00
19520;BME280;9904;52.246;20.898;2023-12-20T04:38:17;99160.31;;;4.62;100.00
19520;BME280;9904;52.246;20.898;2023-12-20T04:40:44;99156.66;;;4.63;100.00
19520;BME280;9904;52.246;20.898;2023-12-20T04:43:11;99178.09;;;4.63;100.00
19520;BME280;9904;52.246;20.898;2023-12-20T04:45:37;99172.47;;;4.66;100.00
19520;BME280;9904;52.246;20.898;2023-12-20T04:48:04;99166.41;;;4.64;100.00
19520;BME280;9904;52.246;20.898;2023-12-20T04:50:31;99163.16;;;4.60;100.00
19520;BME280;9904;52.246;20.898;2023-12-20T04:52:57;99162.44;;;4.58;100.00
19520;BME280;9904;52.246;20.898;2023-12-20T04:55:24;99159.34;;;4.63;100.00
19520;BME280;9904;52.246;20.898;2023-12-20T04:57:51;99158.78;;;4.59;100.00
19520;BME280;9904;52.246;20.898;2023-12-20T05:00:17;99161.19;;;4.62;100.00
19520;BME280;9904;52.246;20.898;2023-12-20T05:02:44;99153.00;;;4.64;100.00
19520;BME280;9904;52.246;20.898;2023-12-20T05:05:10;99148.91;;;4.59;100.00
19520;BME280;9904;52.246;20.898;2023-12-20T05:07:37;99150.16;;;4.55;100.00
19520;BME280;9904;52.246;20.898;2023-12-20T05:10:05;99148.91;;;4.59;100.00
19520;BME280;9904;52.246;20.898;2023-12-20T05:12:32;99158.34;;;4.64;100.00
19520;BME280;9904;52.246;20.898;2023-12-20T05:14:58;99152.84;;;4.65;100.00
19520;BME280;9904;52.246;20.898;2023-12-20T05:17:25;99140.72;;;4.61;100.00
19520;BME280;9904;52.246;20.898;2023-12-20T05:19:52;99140.31;;;4.66;100.00
19520;BME280;9904;52.246;20.898;2023-12-20T05:22:19;99136.50;;;4.58;100.00
19520;BME280;9904;52.246;20.898;2023-12-20T05:24:46;99139.03;;;4.60;100.00
19520;BME280;9904;52.246;20.898;2023-12-20T05:27:13;99147.94;;;4.60;100.00
19520;BME280;9904;52.246;20.898;2023-12-20T05:29:39;99140.88;;;4.59;100.00
19520;BME280;9904;52.246;20.898;2023-12-20T05:32:06;99140.00;;;4.59;100.00
19520;BME280;9904;52.246;20.898;2023-12-20T05:34:33;99138.59;;;4.65;100.00
19520;BME280;9904;52.246;20.898;2023-12-20T05:36:59;99133.97;;;4.57;100.00
19520;BME280;9904;52.246;20.898;2023-12-20T05:39:28;99131.41;;;4.55;100.00
19520;BME280;9904;52.246;20.898;2023-12-20T05:41:54;99137.75;;;4.54;100.00
19520;BME280;9904;52.246;20.898;2023-12-20T05:44:21;99143.97;;;4.55;100.00
19520;BME280;9904;52.246;20.898;2023-12-20T05:46:47;99132.41;;;4.54;100.00
19520;BME280;9904;52.246;20.898;2023-12-20T05:49:14;99128.88;;;4.54;100.00
19520;BME280;9904;52.246;20.898;2023-12-20T05:51:40;99137.34;;;4.59;100.00
19520;BME280;9904;52.246;20.898;2023-12-20T05:54:08;99126.06;;;4.55;100.00
19520;BME280;9904;52.246;20.898;2023-12-20T05:56:35;99139.34;;;4.57;100.00
19520;BME280;9904;52.246;20.898;2023-12-20T05:59:02;99131.56;;;4.54;100.00
19520;BME280;9904;52.246;20.898;2023-12-20T06:01:28;99129.88;;;4.53;100.00
19520;BME280;9904;52.246;20.898;2023-12-20T06:03:55;99135.38;;;4.51;100.00
19520;BME280;9904;52.246;20.898;2023-12-20T06:06:22;99131.81;;;4.51;100.00
19520;BME280;9904;52.246;20.898;2023-12-20T06:08:49;99132.69;;;4.51;100.00
19520;BME280;9904;52.246;20.898;2023-12-20T06:11:15;99141.16;;;4.56;100.00
19520;BME280;9904;52.246;20.898;2023-12-20T06:13:42;99143.41;;;4.51;100.00
19520;BME280;9904;52.246;20.898;2023-12-20T06:16:08;99136.34;;;4.50;100.00
19520;BME280;9904;52.246;20.898;2023-12-20T06:18:35;99136.34;;;4.50;100.00
19520;BME280;9904;52.246;20.898;2023-12-20T06:21:04;99136.50;;;4.49;100.00
19520;BME280;9904;52.246;20.898;2023-12-20T06:23:30;99127.91;;;4.45;100.00
19520;BME280;9904;52.246;20.898;2023-12-20T06:25:57;99130.44;;;4.47;100.00
19520;BME280;9904;52.246;20.898;2023-12-20T06:28:24;99141.00;;;4.48;100.00
19520;BME280;9904;52.246;20.898;2023-12-20T06:30:50;99133.81;;;4.49;100.00
19520;BME280;9904;52.246;20.898;2023-12-20T06:33:19;99144.09;;;4.43;100.00
19520;BME280;9904;52.246;20.898;2023-12-20T06:35:48;99144.81;;;4.46;100.00
19520;BME280;9904;52.246;20.898;2023-12-20T06:38:14;99142.69;;;4.49;100.00
19520;BME280;9904;52.246;20.898;2023-12-20T06:40:41;99139.44;;;4.46;100.00
19520;BME280;9904;52.246;20.898;2023-12-20T06:43:09;99147.50;;;4.46;100.00
19520;BME280;9904;52.246;20.898;2023-12-20T06:45:49;99146.66;;;4.45;100.00
19520;BME280;9904;52.246;20.898;2023-12-20T06:48:16;99143.25;;;4.43;100.00
19520;BME280;9904;52.246;20.898;2023-12-20T06:50:42;99146.78;;;4.43;100.00
19520;BME280;9904;52.246;20.898;2023-12-20T06:53:09;99135.22;;;4.43;100.00
19520;BME280;9904;52.246;20.898;2023-12-20T06:55:36;99145.94;;;4.43;100.00
19520;BME280;9904;52.246;20.898;2023-12-20T06:58:04;99137.59;;;4.46;100.00
19520;BME280;9904;52.246;20.898;2023-12-20T07:00:32;99139.31;;;4.47;100.00
19520;BME280;9904;52.246;20.898;2023-12-20T07:02:59;99136.91;;;4.44;100.00
19520;BME280;9904;52.246;20.898;2023-12-20T07:05:25;99137.59;;;4.46;100.00
19520;BME280;9904;52.246;20.898;2023-12-20T07:07:53;99135.06;;;4.44;100.00
19520;BME280;9904;52.246;20.898;2023-12-20T07:10:20;99127.75;;;4.47;100.00
19520;BME280;9904;52.246;20.898;2023-12-20T07:12:47;99137.59;;;4.46;100.00
19520;BME280;9904;52.246;20.898;2023-12-20T07:15:15;99142.84;;;4.48;100.00
19520;BME280;9904;52.246;20.898;2023-12-20T07:17:41;99140.44;;;4.54;100.00
19520;BME280;9904;52.246;20.898;2023-12-20T07:20:09;99138.88;;;4.52;100.00
19520;BME280;9904;52.246;20.898;2023-12-20T07:22:37;99148.47;;;4.54;100.00
19520;BME280;9904;52.246;20.898;2023-12-20T07:25:04;99157.22;;;4.56;100.00
19520;BME280;9904;52.246;20.898;2023-12-20T07:27:31;99155.81;;;4.52;100.00
19520;BME280;9904;52.246;20.898;2023-12-20T07:29:58;99145.38;;;4.49;100.00
19520;BME280;9904;52.246;20.898;2023-12-20T07:32:25;99136.50;;;4.49;100.00
19520;BME280;9904;52.246;20.898;2023-12-20T07:34:51;99143.41;;;4.51;100.00
19520;BME280;9904;52.246;20.898;2023-12-20T07:37:18;99144.41;;;4.50;100.00
19520;BME280;9904;52.246;20.898;2023-12-20T07:39:45;99141.56;;;4.52;100.00
19520;BME280;9904;52.246;20.898;2023-12-20T07:42:11;99148.06;;;4.49;100.00
19520;BME280;9904;52.246;20.898;2023-12-20T07:44:38;99145.78;;;4.54;100.00
19520;BME280;9904;52.246;20.898;2023-12-20T07:47:05;99139.59;;;4.54;100.00
19520;BME280;9904;52.246;20.898;2023-12-20T07:49:31;99141.88;;;4.49;100.00
19520;BME280;9904;52.246;20.898;2023-12-20T07:51:58;99144.53;;;4.49;100.00
19520;BME280;9904;52.246;20.898;2023-12-20T07:54:25;99142.28;;;4.54;100.00
19520;BME280;9904;52.246;20.898;2023-12-20T07:56:52;99136.06;;;4.53;100.00
19520;BME280;9904;52.246;20.898;2023-12-20T07:59:18;99126.88;;;4.46;100.00
19520;BME280;9904;52.246;20.898;2023-12-20T08:01:57;99132.13;;;4.48;100.00
19520;BME280;9904;52.246;20.898;2023-12-20T08:04:24;99140.44;;;4.44;100.00
19520;BME280;9904;52.246;20.898;2023-12-20T08:06:51;99143.97;;;4.45;100.00
19520;BME280;9904;52.246;20.898;2023-12-20T08:09:18;99134.38;;;4.42;100.00
19520;BME280;9904;52.246;20.898;2023-12-20T08:11:46;99137.03;;;4.42;100.00
19520;BME280;9904;52.246;20.898;2023-12-20T08:14:13;99133.69;;;4.50;100.00
19520;BME280;9904;52.246;20.898;2023-12-20T08:16:41;99134.81;;;4.48;100.00
19520;BME280;9904;52.246;20.898;2023-12-20T08:19:07;99138.47;;;4.47;100.00
19520;BME280;9904;52.246;20.898;2023-12-20T08:21:34;99126.78;;;4.48;100.00
19520;BME280;9904;52.246;20.898;2023-12-20T08:24:04;99132.25;;;4.46;100.00
19520;BME280;9904;52.246;20.898;2023-12-20T08:26:32;99132.41;;;4.44;100.00
19520;BME280;9904;52.246;20.898;2023-12-20T08:28:58;99132.28;;;4.56;100.00
19520;BME280;9904;52.246;20.898;2023-12-20T08:31:27;99126.63;;;4.49;100.00
19520;BME280;9904;52.246;20.898;2023-12-20T08:33:54;99123.22;;;4.47;100.00
19520;BME280;9904;52.246;20.898;2023-12-20T08:36:21;99124.34;;;4.44;100.00
19520;BME280;9904;52.246;20.898;2023-12-20T08:38:50;99123.94;;;4.49;100.00
19520;BME280;9904;52.246;20.898;2023-12-20T08:41:17;99125.91;;;4.47;100.00
19520;BME280;9904;52.246;20.898;2023-12-20T08:43:44;99122.25;;;4.48;100.00
19520;BME280;9904;52.246;20.898;2023-12-20T08:46:11;99125.63;;;4.50;100.00
19520;BME280;9904;52.246;20.898;2023-12-20T08:48:39;99124.66;;;4.61;100.00
19520;BME280;9904;52.246;20.898;2023-12-20T08:51:06;99129.72;;;4.54;100.00
19520;BME280;9904;52.246;20.898;2023-12-20T08:53:36;99120.13;;;4.52;100.00
19520;BME280;9904;52.246;20.898;2023-12-20T08:56:02;99125.94;;;4.57;100.00
19520;BME280;9904;52.246;20.898;2023-12-20T08:58:29;99131.56;;;4.54;100.00
19520;BME280;9904;52.246;20.898;2023-12-20T09:00:56;99123.78;;;4.51;100.00
19520;BME280;9904;52.246;20.898;2023-12-20T09:03:24;99129.88;;;4.53;100.00
19520;BME280;9904;52.246;20.898;2023-12-20T09:05:51;99128.16;;;4.52;100.00
19520;BME280;9904;52.246;20.898;2023-12-20T09:08:18;99108.69;;;4.50;100.00
19520;BME280;9904;52.246;20.898;2023-12-20T09:10:44;99118.31;;;4.52;100.00
19520;BME280;9904;52.246;20.898;2023-12-20T09:13:11;99111.25;;;4.51;100.00
19520;BME280;9904;52.246;20.898;2023-12-20T09:15:38;99111.38;;;4.50;100.00
19520;BME280;9904;52.246;20.898;2023-12-20T09:18:05;99117.75;;;4.49;100.00
19520;BME280;9904;52.246;20.898;2023-12-20T09:20:33;99102.22;;;4.52;100.00
19520;BME280;9904;52.246;20.898;2023-12-20T09:23:00;99107.16;;;4.47;100.00
19520;BME280;9904;52.246;20.898;2023-12-20T09:25:27;99100.53;;;4.51;100.00
19520;BME280;9904;52.246;20.898;2023-12-20T09:27:55;99096.00;;;4.52;100.00
19520;BME280;9904;52.246;20.898;2023-12-20T09:30:22;99089.81;;;4.51;100.00
19520;BME280;9904;52.246;20.898;2023-12-20T09:32:56;99087.81;;;4.53;100.00
19520;BME280;9904;52.246;20.898;2023-12-20T09:35:23;99083.31;;;4.54;100.00
19520;BME280;9904;52.246;20.898;2023-12-20T09:37:50;99079.66;;;4.55;100.00
19520;BME280;9904;52.246;20.898;2023-12-20T09:40:19;99081.19;;;4.57;100.00
19520;BME280;9904;52.246;20.898;2023-12-20T09:42:57;99088.66;;;4.64;100.00
19520;BME280;9904;52.246;20.898;2023-12-20T09:45:25;99082.47;;;4.63;100.00
19520;BME280;9904;52.246;20.898;2023-12-20T09:47:55;99083.72;;;4.59;100.00
19520;BME280;9904;52.246;20.898;2023-12-20T09:50:22;99074.56;;;4.62;100.00
19520;BME280;9904;52.246;20.898;2023-12-20T09:52:51;99080.22;;;4.58;100.00
19520;BME280;9904;52.246;20.898;2023-12-20T09:55:19;99078.38;;;4.59;100.00
19520;BME280;9904;52.246;20.898;2023-12-20T09:57:47;99072.03;;;4.60;100.00
19520;BME280;9904;52.246;20.898;2023-12-20T10:00:15;99068.50;;;4.59;100.00
19520;BME280;9904;52.246;20.898;2023-12-20T10:02:59;99070.06;;;4.62;100.00
19520;BME280;9904;52.246;20.898;2023-12-20T10:05:30;99072.19;;;4.58;100.00
19520;BME280;9904;52.246;20.898;2023-12-20T10:07:59;99059.75;;;4.57;100.00
19520;BME280;9904;52.246;20.898;2023-12-20T10:10:26;99066.97;;;4.57;100.00
19520;BME280;9904;52.246;20.898;2023-12-20T10:13:09;99069.34;;;4.60;100.00
19520;BME280;9904;52.246;20.898;2023-12-20T10:15:37;99071.47;;;4.56;100.00
19520;BME280;9904;52.246;20.898;2023-12-20T10:18:04;99071.47;;;4.56;100.00
19520;BME280;9904;52.246;20.898;2023-12-20T10:20:32;99065.84;;;4.59;100.00
19520;BME280;9904;52.246;20.898;2023-12-20T10:22:59;99050.19;;;4.55;100.00
19520;BME280;9904;52.246;20.898;2023-12-20T10:25:27;99052.56;;;4.58;100.00
19520;BME280;9904;52.246;20.898;2023-12-20T10:28:12;99049.88;;;4.58;100.00
19520;BME280;9904;52.246;20.898;2023-12-20T10:30:41;99047.34;;;4.56;100.00
19520;BME280;9904;52.246;20.898;2023-12-20T10:33:09;99036.34;;;4.59;100.00
19520;BME280;9904;52.246;20.898;2023-12-20T10:35:37;99044.09;;;4.63;100.00
19520;BME280;9904;52.246;20.898;2023-12-20T10:38:07;99047.06;;;4.59;100.00
19520;BME280;9904;52.246;20.898;2023-12-20T10:40:36;99031.00;;;4.59;100.00
19520;BME280;9904;52.246;20.898;2023-12-20T10:43:04;99038.03;;;4.60;100.00
19520;BME280;9904;52.246;20.898;2023-12-20T10:45:32;99042.38;;;4.62;100.00
19520;BME280;9904;52.246;20.898;2023-12-20T10:47:59;99037.91;;;4.62;100.00
19520;BME280;9904;52.246;20.898;2023-12-20T10:50:27;99045.94;;;4.62;100.00
19520;BME280;9904;52.246;20.898;2023-12-20T10:52:55;99043.81;;;4.66;100.00
19520;BME280;9904;52.246;20.898;2023-12-20T10:55:23;99039.28;;;4.66;100.00
19520;BME280;9904;52.246;20.898;2023-12-20T10:58:16;99035.91;;;4.64;100.00
19520;BME280;9904;52.246;20.898;2023-12-20T11:00:47;99033.25;;;4.64;100.00
19520;BME280;9904;52.246;20.898;2023-12-20T11:03:17;99020.25;;;4.69;100.00
19520;BME280;9904;52.246;20.898;2023-12-20T11:05:52;99013.91;;;4.70;100.00
19520;BME280;9904;52.246;20.898;2023-12-20T11:08:38;99017.00;;;4.66;100.00
19520;BME280;9904;52.246;20.898;2023-12-20T11:11:12;99013.63;;;4.64;100.00
19520;BME280;9904;52.246;20.898;2023-12-20T11:14:17;99005.16;;;4.68;100.00
19520;BME280;9904;52.246;20.898;2023-12-20T11:16:45;99009.69;;;4.68;100.00
19520;BME280;9904;52.246;20.898;2023-12-20T11:19:20;99005.97;;;4.69;100.00
19520;BME280;9904;52.246;20.898;2023-12-20T11:21:47;98997.25;;;4.67;100.00
19520;BME280;9904;52.246;20.898;2023-12-20T11:24:15;98983.69;;;4.68;100.00
19520;BME280;9904;52.246;20.898;2023-12-20T11:26:47;98991.75;;;4.68;100.00
19520;BME280;9904;52.246;20.898;2023-12-20T11:29:33;98992.13;;;4.73;100.00
19520;BME280;9904;52.246;20.898;2023-12-20T11:35:16;98988.06;;;4.69;100.00
19520;BME280;9904;52.246;20.898;2023-12-20T11:37:45;98988.34;;;4.66;100.00
19520;BME280;9904;52.246;20.898;2023-12-20T11:40:17;98988.06;;;4.69;100.00
19520;BME280;9904;52.246;20.898;2023-12-20T11:42:48;98978.63;;;4.65;100.00
19520;BME280;9904;52.246;20.898;2023-12-20T11:45:20;98975.94;;;4.65;100.00
19520;BME280;9904;52.246;20.898;2023-12-20T11:47:49;98970.88;;;4.62;100.00
19520;BME280;9904;52.246;20.898;2023-12-20T11:50:17;98962.28;;;4.58;100.00
19520;BME280;9904;52.246;20.898;2023-12-20T11:52:45;98958.63;;;4.59;100.00
19520;BME280;9904;52.246;20.898;2023-12-20T11:55:12;98962.41;;;4.67;100.00
19520;BME280;9904;52.246;20.898;2023-12-20T11:57:39;98951.69;;;4.67;100.00
19520;BME280;9904;52.246;20.898;2023-12-20T12:00:06;98953.81;;;4.63;100.00
19520;BME280;9904;52.246;20.898;2023-12-20T12:02:32;98956.50;;;4.63;100.00
19520;BME280;9904;52.246;20.898;2023-12-20T12:04:59;98956.50;;;4.63;100.00
19520;BME280;9904;52.246;20.898;2023-12-20T12:07:26;98949.72;;;4.59;100.00
19520;BME280;9904;52.246;20.898;2023-12-20T12:09:53;98947.03;;;4.59;100.00
19520;BME280;9904;52.246;20.898;2023-12-20T12:12:20;98955.94;;;4.59;100.00
19520;BME280;9904;52.246;20.898;2023-12-20T12:14:48;98948.03;;;4.58;100.00
19520;BME280;9904;52.246;20.898;2023-12-20T12:17:15;98958.06;;;4.56;100.00
19520;BME280;9904;52.246;20.898;2023-12-20T12:19:43;98945.50;;;4.56;100.00
19520;BME280;9904;52.246;20.898;2023-12-20T12:22:12;98949.47;;;4.52;100.00
19520;BME280;9904;52.246;20.898;2023-12-20T12:24:43;98946.91;;;4.51;100.00
19520;BME280;9904;52.246;20.898;2023-12-20T12:27:12;98948.63;;;4.52;100.00
19520;BME280;9904;52.246;20.898;2023-12-20T12:29:39;98945.22;;;4.50;100.00
19520;BME280;9904;52.246;20.898;2023-12-20T12:32:06;98934.41;;;4.41;100.00
19520;BME280;9904;52.246;20.898;2023-12-20T12:34:35;98933.75;;;4.30;100.00
19520;BME280;9904;52.246;20.898;2023-12-20T12:37:03;98933.03;;;4.27;100.00
19520;BME280;9904;52.246;20.898;2023-12-20T12:39:30;98923.16;;;4.28;100.00
19520;BME280;9904;52.246;20.898;2023-12-20T12:41:57;98929.06;;;4.32;100.00
19520;BME280;9904;52.246;20.898;2023-12-20T12:44:23;98926.53;;;4.30;100.00
19520;BME280;9904;52.246;20.898;2023-12-20T12:46:51;98933.03;;;4.27;100.00
19520;BME280;9904;52.246;20.898;2023-12-20T12:49:20;98937.25;;;4.30;100.00
19520;BME280;9904;52.246;20.898;2023-12-20T12:51:50;98942.34;;;4.33;100.00
19520;BME280;9904;52.246;20.898;2023-12-20T12:54:17;98933.75;;;4.30;100.00
19520;BME280;9904;52.246;20.898;2023-12-20T12:56:44;98950.22;;;4.35;100.00
19520;BME280;9904;52.246;20.898;2023-12-20T12:59:13;98933.31;;;4.34;100.00
19520;BME280;9904;52.246;20.898;2023-12-20T13:01:40;98934.41;;;4.32;100.00
19520;BME280;9904;52.246;20.898;2023-12-20T13:04:06;98931.19;;;4.38;100.00
19520;BME280;9904;52.246;20.898;2023-12-20T13:06:37;98930.34;;;4.27;100.00